Aplicació Alertes

Dades de l'estació automàtica el Port del Comte (2.316 m)

?
?
Resum diari 22:30 TU
Dades diàries de l'estació meteorològica
Temperatura mitjana -9.0 °C
Temperatura màxima -6.9 °C 13:22 TU
Temperatura mínima -12.0 °C 2:51 TU
Humitat relativa mitjana 82%
Precipitació acumulada 0.6 mm
Gruix de neu màxim 17 cm
Ratxa màxima del vent (6 m) 80.3 km/h - 327º 18:02 TU
Irradiació solar global 8.8 MJ/m2

El tram horari està expressat en Temps Universal (TU). Cal sumar una hora en horari d'hivern i dues en horari d'estiu per passar a l'hora oficial.

el Port del Comte (2.316 m)

Metadades estació meteorol´gica
Municipi La Coma i la Pedra
Comarca Solsonès
Altitud 2316 m
Data alta 03.10.2002
Estat actual Operativa
Dades de període
Període
TU
TM
°C
TX
°C
TN
°C
HRM
%
PPT
mm
GN
cm
VVM (6 m)
km/h
DVM (6 m)
graus
VVX (6 m)
km/h
RS
W/m2
00:00 - 00:30 -11.1 -11.0 -11.2 81 0.0 16 22.0 332 34.2 0
00:30 - 01:00 -11.6 -11.2 -11.7 91 0.0 16 16.9 313 33.8 0
01:00 - 01:30 -11.8 -11.7 -11.8 94 0.0 16 19.4 299 36.0 0
01:30 - 02:00 -11.9 -11.8 -11.9 93 0.0 16 23.8 301 40.7 0
02:00 - 02:30 -11.7 -11.2 -11.9 87 0.0 16 24.8 318 48.6 0
02:30 - 03:00 -11.5 -10.8 -12.0 81 0.0 16 27.7 325 52.2 0
03:00 - 03:30 -11.6 -11.1 -11.9 81 0.0 16 23.4 330 43.9 0
03:30 - 04:00 -11.6 -11.1 -11.9 77 0.0 16 26.6 319 45.7 0
04:00 - 04:30 -11.0 -10.7 -11.4 63 0.0 16 43.9 336 62.3 0
04:30 - 05:00 -10.8 -10.6 -11.1 65 0.0 15 46.4 340 59.4 0
05:00 - 05:30 -10.8 -10.5 -11.1 68 0.0 15 45.0 335 64.8 0
05:30 - 06:00 -10.5 -10.2 -10.8 68 0.1 16 48.2 338 66.6 0
06:00 - 06:30 -10.3 -10.1 -10.7 68 0.1 16 37.8 345 62.3 0
06:30 - 07:00 -10.3 -9.9 -10.6 69 0.0 16 30.6 342 49.0 0
07:00 - 07:30 -10.0 -9.8 -10.3 68 0.0 16 33.5 337 49.7 6
07:30 - 08:00 -9.9 -9.5 -10.1 66 0.0 16 20.2 342 38.5 45
08:00 - 08:30 -9.7 -9.5 -9.8 65 0.0 16 21.2 345 40.0 117
08:30 - 09:00 -9.3 -9.0 -9.5 64 0.0 16 19.1 351 31.3 196
09:00 - 09:30 -8.6 -8.2 -9.0 62 0.0 16 27.4 349 41.4 232
09:30 - 10:00 -8.5 -8.1 -8.8 63 0.0 16 24.5 338 40.3 232
10:00 - 10:30 -8.0 -7.8 -8.2 64 0.0 16 37.8 327 52.9 392
10:30 - 11:00 -7.8 -7.5 -7.9 65 0.0 16 37.4 316 60.8 451
11:00 - 11:30 -7.9 -7.8 -8.1 70 0.1 16 37.1 306 58.0 468
11:30 - 12:00 -7.7 -7.3 -7.9 73 0.0 16 35.6 311 50.8 482
12:00 - 12:30 -7.4 -7.0 -7.6 74 0.0 16 37.8 318 54.7 485
12:30 - 13:00 -7.4 -7.0 -7.5 79 0.0 16 41.0 328 64.4 449
13:00 - 13:30 -7.1 -6.9 -7.3 76 0.1 16 39.6 336 61.2 421
13:30 - 14:00 -7.1 -6.9 -7.4 77 0.0 16 37.4 327 56.9 354
14:00 - 14:30 -7.4 -7.3 -7.5 88 0.0 16 30.6 318 47.9 264
14:30 - 15:00 -7.6 -7.6 -7.7 97 0.0 16 36.7 319 57.6 193
15:00 - 15:30 -7.8 -7.7 -7.8 100 0.0 16 33.8 324 57.2 95
15:30 - 16:00 -7.9 -7.9 -8.0 100 0.0 16 38.5 327 51.8 42
16:00 - 16:30 -8.1 -8.0 -8.1 100 0.0 16 42.8 326 55.1 9
16:30 - 17:00 -8.1 -8.1 -8.2 100 0.0 16 42.1 327 62.6 0
17:00 - 17:30 -8.1 -8.1 -8.2 100 0.1 16 43.2 332 59.4 0
17:30 - 18:00 -8.1 -8.0 -8.2 99 0.0 16 45.7 336 62.6 0
18:00 - 18:30 -7.8 -7.4 -7.9 89 0.0 16 52.2 333 80.3 0
18:30 - 19:00 -7.7 -7.4 -8.1 86 0.0 16 44.6 331 72.7 0
19:00 - 19:30 -7.7 -7.5 -7.9 85 0.1 16 33.1 346 49.0 0
19:30 - 20:00 -7.7 -7.6 -7.8 84 0.0 16 28.1 347 43.9 0
20:00 - 20:30 -7.6 -7.5 -7.8 84 0.0 16 31.7 344 47.2 0
20:30 - 21:00 -8.4 -7.7 -8.7 97 0.0 16 13.7 343 35.3 0
21:00 - 21:30 -8.4 -8.4 -8.6 100 0.0 17 9.7 37 23.8 0
21:30 - 22:00 -8.3 -8.1 -8.5 100 0.0 16 8.3 86 26.3 0
22:00 - 22:30 -8.0 -7.8 -8.1 97 0.0 16 12.2 81 23.0 0
22:30 - 23:00 -7.7 -7.5 -7.8 91 0.0 16 14.8 93 25.9 0

Les dades en taronja només han passat un control de qualitat automàtic. Resta pendent la seva validació definitiva.